Nearby METAR Reports

 

KSJC - San Jose, California, USA
Distance from station: NE 14km
Updated: 12/12/2019 08:06
Overcast
Overcast
 Wind from S
Wind: S 11 km/h
Temperature: 16°C
Dew Point: 11°C
Humidity: 72%
Barometer: 1022.7 hPa
Clouds: Overcast
Visibility: 16 km
Cloud details: Few Clouds 792 m
Overcast 1219 m
2019/12/12 08:06 KSJC 120806Z AUTO 17006KT 10SM FEW026 OVC040 16/11 A3020 RMK AO2 T01560111
KNUQ - Moffett Nas/Mtn, California, USA
Distance from station: N 14km
Updated: 21/11/2019 16:56
NOT Current

 
Barometer: 1011.2 hPa
2019/11/21 16:56 KNUQ 211656Z AUTO A2986 RMK AO2 SLP116 PWINO $
 
KPAO - Palo Alto, California, USA
Distance from station: NNW 23km
Updated: 12/12/2019 04:47
NOT Current
Light rain, Mostly cloudy
Light rain, Mostly cloudy
 Wind from ESE
Wind: ESE 15 km/h
Temperature: 16°C
Dew Point: 13°C
Humidity: 83%
Barometer: 1022 hPa
Summary: Light rain
Clouds: Mostly cloudy
Visibility: 16 km
Cloud details: Mostly cloudy 1372 m
2019/12/12 04:47 KPAO 120447Z 12008KT 10SM -RA BKN045 16/13 A3018 RMK LAST
KRHV - San Jose/Reid, California, USA
Distance from station: ENE 19km
Updated: 12/12/2019 05:47
NOT Current
Mostly cloudy
Mostly cloudy
 Wind from SE
Wind: SE 17 km/h
Temperature: 17°C
Dew Point: 12°C
Humidity: 73%
Barometer: 1022.7 hPa
Clouds: Mostly cloudy
Visibility: 16 km
Cloud details: Mostly cloudy 3962 m
2019/12/12 05:47 KRHV 120547Z 14009KT 10SM BKN130 17/12 A3020 RMK LAST
 
KOAK - Oakland, California, USA
Distance from station: NNW 50km
Updated: 12/12/2019 07:53
Overcast
Overcast
 Wind from S
Wind: S 7 km/h
Temperature: 16°C
Dew Point: 13°C
Humidity: 83%
Barometer: 1022.4 hPa
Clouds: Overcast
Visibility: 16 km
Cloud details: Few Clouds 488 m
Overcast 640 m
2019/12/12 07:53 KOAK 120753Z 17004KT 10SM FEW016 OVC021 16/13 A3019 RMK AO2 SLP224 T01560133 401670122
KSQL - San Carlos Airpo, California, USA
Distance from station: NW 34km
Updated: 12/12/2019 08:20
Overcast
Overcast
 Wind from SSE
Wind: SSE 13 km/h
Temperature: 17°C
Dew Point: 14°C
Humidity: 83%
Barometer: 1022.7 hPa
Clouds: Overcast
Visibility: 16 km
Cloud details: Mostly cloudy 853 m
Overcast 1067 m
2019/12/12 08:20 KSQL 120820Z AUTO 16007KT 10SM BKN028 OVC035 17/14 A3020 RMK AO2
 
KSFO - San Francisco, California, USA
Distance from station: NW 49km
Updated: 12/12/2019 07:56
Overcast
Overcast
 Wind from SE
Wind: SE 13 km/h
Temperature: 17°C
Dew Point: 14°C
Humidity: 83%
Barometer: 1022 hPa
Clouds: Overcast
Visibility: 14 km
Cloud details: Few Clouds 274 m
Partly cloudy 853 m
Overcast 975 m
2019/12/12 07:56 KSFO 120756Z 14007KT 9SM FEW009 SCT028 OVC032 17/14 A3018 RMK AO2 SLP221 T01670139 401670111
KE16 - San Martin, California, USA
Distance from station: ESE 43km
Updated: 14/11/2019 09:35
NOT Current
Overcast
Overcast
 Wind from SE
Wind: SE 11 km/h
Temperature: 12°C
Dew Point: 10°C
Humidity: 88%
Barometer: 1017.6 hPa
Clouds: Overcast
Visibility: 16 km
Cloud details: Overcast 427 m
2019/11/14 09:35 KE16 140935Z AUTO 13006KT 10SM OVC014 12/10 A3005 RMK AO2
 
KWVI - Watsonville, California, USA
Distance from station: SSE 44km
Updated: 12/12/2019 07:53
Overcast
Overcast
 Wind from calm
Wind: Calm
Temperature: 14°C
Dew Point: 14°C
Humidity: 100%
Barometer: 1023.7 hPa
Clouds: Overcast
Visibility: 16 km
Cloud details: Overcast 640 m
2019/12/12 07:53 KWVI 120753Z AUTO 00000KT 10SM OVC021 14/14 A3023 RMK AO2 RAB00E21 SLP236 P0000 T01440139 401670111
KHAF - Half Moon Bay, California, USA
Distance from station: WNW 50km
Updated: 12/12/2019 08:20
Mist, Overcast
Mist, Overcast
 Wind from S
Wind: S 22 km/h, Gust: 30 km/h
Temperature: 14°C
Dew Point: 14°C
Humidity: 100%
Barometer: 1022.7 hPa
Summary: Mist
Clouds: Overcast
Visibility: 2 km
Cloud details: Overcast 152 m
2019/12/12 08:20 KHAF 120820Z AUTO 18012G16KT 1 1/4SM BR OVC005 14/14 A3020 RMK AO2
 
KHWD - Hayward, California, USA
Distance from station: N 44km
Updated: 12/12/2019 07:54
Overcast
Overcast
 Wind from calm
Wind: Calm
Temperature: 16°C
Dew Point: 13°C
Humidity: 83%
Barometer: 1022 hPa
Clouds: Overcast
Visibility: 16 km
Cloud details: Overcast 792 m
2019/12/12 07:54 KHWD 120754Z 00000KT 10SM OVC026 16/13 A3018 RMK AO2 RAE14 SLP231 P0001 T01560133 401720117
KLVK - Livermore, California, USA
Distance from station: NNE 51km
Updated: 12/12/2019 08:03
Overcast
Overcast
 Wind from calm
Wind: Calm
Temperature: 13°C
Dew Point: 12°C
Humidity: 94%
Barometer: 1022.4 hPa
Clouds: Overcast
Visibility: 11 km
Cloud details: Overcast 884 m
2019/12/12 08:03 KLVK 120803Z AUTO 00000KT 7SM OVC029 13/12 A3019 RMK AO2 T01330122